Chicago Bmc, Illinois
Current Conditions -  °F | °C
As of 10:12 PM on Tuesday 25 Nov 2014 (Local Time) from KORD Reporting Station
Broken Clouds Broken Clouds  
Wind Chill: 12°   Ceiling: 1500
Heat Index: 20°   Visibility: 9mi
Dew Point: 16°   Wind: 6mph
Humidity: 85%   Direction: 190°S
Pressure: 30.19"   Gusts: NA
Location:  42.0275°N, 87.808°W
Report Text: KORD 260412Z 19005KT 9SM BKN015 M07/M09 A3019 RMK AO2 T10671089
Loading
Personal Weather Stations






























Interactive Weather Map New forecast layout! Learn more

10-Day Weather Forecast

Advertisements
Track Severe Weather on mobile